Time;durP1;ratioP1;P1;durP2;ratioP2;P2;SDS_P1;SDS_P2;PMS_P1;PMS_P2;Temp;Humidity;BMP_temperature;BMP_pressure;BME280_temperature;BME280_humidity;BME280_pressure;Samples;Min_cycle;Max_cycle;Signal;HPM_P1;HPM_P2
2022/08/17 05:56:19;;;;;;;7.45;6.78;;;;;;;;;;6301516;22;20428;-88
2022/08/17 05:58:57;;;;;;;7.22;6.60;;;;;;;;;;6362061;22;20140;-89
2022/08/17 06:01:33;;;;;;;9.25;6.80;;;;;;;;;;6339296;22;20497;-78
2022/08/17 06:03:59;;;;;;;7.05;6.40;;;;;;;;;;6339319;22;20003;-78
2022/08/17 06:06:31;;;;;;;6.45;5.82;;;;;;;;;;6339483;22;20444;-78
2022/08/17 06:09:19;;;;;;;7.78;6.22;;;;;;;;;;6339615;22;20002;-79
2022/08/17 09:42:54;;;;;;;4.95;4.15;;;;;;;;;;6367525;22;20026;-81
2022/08/17 09:45:29;;;;;;;4.70;4.30;;;;;;;;;;6345833;22;20018;-79
2022/08/17 09:48:16;;;;;;;5.10;4.60;;;;;;;;;;6344592;22;20022;-78
2022/08/17 09:51:00;;;;;;;5.30;4.80;;;;;;;;;;6347582;22;19999;-80
2022/08/17 09:53:26;;;;;;;6.03;5.53;;;;;;;;;;6356130;22;20003;-82
2022/08/17 09:55:51;;;;;;;6.43;5.85;;;;;;;;;;6351959;22;20030;-85
2022/08/17 09:58:39;;;;;;;8.23;6.78;;;;;;;;;;6347704;22;20003;-79
2022/08/17 10:01:50;;;;;;;6.90;6.25;;;;;;;;;;6350299;22;20029;-83
2022/08/17 10:04:18;;;;;;;6.07;5.45;;;;;;;;;;6333647;22;20003;-85
2022/08/17 10:06:57;;;;;;;6.45;5.65;;;;;;;;;;6344299;22;20030;-80
2022/08/17 10:09:22;;;;;;;;;;;;;;;;;;6347628;22;20017;-78
2022/08/17 10:12:18;;;;;;;6.10;5.47;;;;;;;;;;6343155;22;19938;-84
2022/08/17 10:14:53;;;;;;;6.70;5.60;;;;;;;;;;6350073;22;20251;-79
2022/08/17 10:17:49;;;;;;;6.93;6.13;;;;;;;;;;6346583;22;19998;-79
2022/08/17 10:20:32;;;;;;;6.40;5.63;;;;;;;;;;6346221;22;20037;-79
2022/08/17 10:26:11;;;;;;;8.40;6.20;;;;;;;;;;6347439;22;20025;-81
2022/08/17 10:29:03;;;;;;;6.65;6.13;;;;;;;;;;6348731;22;19999;-85
2022/08/17 10:31:44;;;;;;;6.30;5.70;;;;;;;;;;6345117;22;20358;-86
2022/08/17 10:34:50;;;;;;;6.53;4.90;;;;;;;;;;6343661;22;20002;-83
2022/08/17 10:37:18;;;;;;;5.68;5.15;;;;;;;;;;6343643;22;20082;-81
2022/08/17 10:40:08;;;;;;;5.88;5.15;;;;;;;;;;6344401;22;20003;-82
2022/08/17 10:43:13;;;;;;;7.18;5.65;;;;;;;;;;6346594;22;20493;-86
2022/08/17 10:45:50;;;;;;;5.20;4.80;;;;;;;;;;6376642;22;20029;-82
2022/08/17 10:48:29;;;;;;;5.90;5.40;;;;;;;;;;6376294;22;20469;-83
2022/08/17 10:50:54;;;;;;;5.55;5.07;;;;;;;;;;6375162;22;20441;-81
2022/08/17 10:53:32;;;;;;;6.18;5.40;;;;;;;;;;6375429;22;20003;-84
2022/08/17 10:56:12;;;;;;;5.30;4.80;;;;;;;;;;6374650;22;19995;-80
2022/08/17 10:58:53;;;;;;;6.32;5.30;;;;;;;;;;6374742;22;20006;-81
2022/08/17 11:01:28;;;;;;;6.00;5.18;;;;;;;;;;6346721;22;20010;-83
2022/08/17 11:03:57;;;;;;;5.70;5.15;;;;;;;;;;6375120;22;20005;-81
2022/08/17 11:06:35;;;;;;;8.70;5.82;;;;;;;;;;6376202;22;20002;-86
2022/08/17 11:09:18;;;;;;;7.17;5.60;;;;;;;;;;6373767;22;19999;-86
2022/08/17 11:11:48;;;;;;;5.20;4.70;;;;;;;;;;6355229;22;20003;-83
2022/08/17 11:14:26;;;;;;;5.68;5.05;;;;;;;;;;6347805;22;20367;-86
2022/08/17 11:17:28;;;;;;;5.57;4.55;;;;;;;;;;6376283;22;19998;-86
2022/08/17 11:20:00;;;;;;;6.10;5.50;;;;;;;;;;6378117;22;20328;-86
2022/08/17 11:22:44;;;;;;;6.85;5.60;;;;;;;;;;6375701;22;20009;-81
2022/08/17 11:25:30;;;;;;;6.32;5.72;;;;;;;;;;6377949;22;20448;-85
2022/08/17 11:28:12;;;;;;;7.50;5.15;;;;;;;;;;6375164;22;20047;-85
2022/08/17 11:30:39;;;;;;;5.50;4.95;;;;;;;;;;6375079;22;20010;-86
2022/08/17 11:33:33;;;;;;;6.50;4.80;;;;;;;;;;6376282;22;19998;-86
2022/08/17 11:36:22;;;;;;;6.30;5.55;;;;;;;;;;6375826;22;20003;-85
2022/08/17 11:39:00;;;;;;;8.02;5.70;;;;;;;;;;6375492;22;19998;-86
2022/08/17 11:41:45;;;;;;;5.95;5.38;;;;;;;;;;6375565;22;20062;-86
2022/08/17 16:56:04;;;;;;;9.07;6.63;;;;;;;;;;6243585;23;20087;-89
2022/08/17 16:58:29;;;;;;;5.18;4.68;;;;;;;;;;6248412;23;20008;-89
2022/08/17 17:00:58;;;;;;;5.35;3.40;;;;;;;;;;6247973;23;20008;-88
2022/08/17 17:03:26;;;;;;;6.93;4.32;;;;;;;;;;6273516;22;20004;-85
2022/08/17 17:06:08;;;;;;;5.70;4.10;;;;;;;;;;6251248;22;20012;-88
2022/08/17 17:08:47;;;;;;;6.60;3.65;;;;;;;;;;6278545;22;20030;-88
2022/08/17 17:11:39;;;;;;;5.75;3.67;;;;;;;;;;6278403;22;20078;-90
2022/08/17 17:14:08;;;;;;;6.40;4.10;;;;;;;;;;6279757;22;20050;-86
2022/08/17 17:16:34;;;;;;;5.10;3.75;;;;;;;;;;6278994;22;20082;-85
2022/08/17 17:19:06;;;;;;;5.28;3.90;;;;;;;;;;6278884;22;20031;-89
2022/08/17 17:21:45;;;;;;;4.22;3.55;;;;;;;;;;6278384;22;20331;-87
2022/08/17 17:24:24;;;;;;;4.80;3.72;;;;;;;;;;6278020;22;20456;-89
2022/08/17 17:27:16;;;;;;;6.00;3.45;;;;;;;;;;6278479;22;20046;-86
2022/08/17 17:29:54;;;;;;;4.82;3.45;;;;;;;;;;6278366;22;20011;-86
2022/08/17 17:33:00;;;;;;;4.50;3.70;;;;;;;;;;6277363;22;20004;-90
2022/08/17 17:35:55;;;;;;;5.78;3.78;;;;;;;;;;6272812;22;20092;-89
2022/08/17 17:38:30;;;;;;;4.43;3.80;;;;;;;;;;6277523;22;20014;-91
2022/08/17 17:41:00;;;;;;;5.15;3.58;;;;;;;;;;6277366;22;20089;-86
2022/08/17 17:43:27;;;;;;;5.90;4.07;;;;;;;;;;6277402;22;20045;-88
2022/08/17 17:46:01;;;;;;;5.07;3.70;;;;;;;;;;6277577;22;20003;-88
2022/08/17 17:48:29;;;;;;;6.28;3.83;;;;;;;;;;6278029;22;20015;-92
2022/08/17 17:51:16;;;;;;;5.32;3.80;;;;;;;;;;6281189;22;20003;-90
2022/08/17 17:53:49;;;;;;;6.28;3.70;;;;;;;;;;6278045;22;20000;-88
2022/08/17 17:56:28;;;;;;;4.90;3.72;;;;;;;;;;6297333;22;20042;-89
2022/08/17 17:59:05;;;;;;;;;;;;;;;;;;6308756;22;20026;-86
2022/08/17 18:01:58;;;;;;;8.57;3.85;;;;;;;;;;6308241;22;19917;-88
2022/08/17 18:04:36;;;;;;;5.78;3.55;;;;;;;;;;6309123;22;20086;-88
2022/08/17 18:07:26;;;;;;;5.47;3.40;;;;;;;;;;6309537;22;20070;-91
2022/08/17 18:10:16;;;;;;;5.45;3.42;;;;;;;;;;6309753;22;20003;-86
2022/08/17 18:12:53;;;;;;;6.68;4.72;;;;;;;;;;6308566;22;20007;-86
2022/08/17 18:15:28;;;;;;;9.02;3.92;;;;;;;;;;6308602;22;19999;-90
2022/08/17 18:18:12;;;;;;;7.07;4.13;;;;;;;;;;6308194;22;20003;-89
2022/08/17 18:20:39;;;;;;;7.85;4.45;;;;;;;;;;6309191;22;20091;-89
2022/08/17 18:23:05;;;;;;;7.72;5.50;;;;;;;;;;6308550;22;20003;-90
2022/08/17 18:25:58;;;;;;;6.43;5.63;;;;;;;;;;6310324;22;19999;-83
2022/08/17 18:28:34;;;;;;;8.63;5.15;;;;;;;;;;6306262;22;20019;-86
2022/08/17 18:31:08;;;;;;;7.47;4.28;;;;;;;;;;6283721;22;20079;-84
2022/08/17 18:33:36;;;;;;;5.65;3.72;;;;;;;;;;6310098;22;20061;-84
2022/08/17 18:36:02;;;;;;;7.28;3.60;;;;;;;;;;6283177;22;20307;-85
2022/08/17 18:38:48;;;;;;;10.70;5.88;;;;;;;;;;6283245;22;20045;-85
2022/08/17 18:41:29;;;;;;;7.97;5.35;;;;;;;;;;6307858;22;20438;-84
2022/08/17 18:44:02;;;;;;;5.40;4.07;;;;;;;;;;6283010;22;20003;-85
2022/08/17 18:46:34;;;;;;;7.10;3.65;;;;;;;;;;6311508;22;20033;-88
2022/08/17 18:49:26;;;;;;;7.35;3.67;;;;;;;;;;6310781;22;19999;-81
2022/08/17 18:52:20;;;;;;;7.95;3.83;;;;;;;;;;6310380;22;20003;-86
